KBLF/BLF METAR and TAF weather

Enter ICAO airport designator
Station Type Date Time Source
KBLF METAR 2023/01/29 19:28 UTC NOAA

KBLF 291928Z AUTO 26014KT 10SM -RA SCT013 BKN020 OVC042 06/04 A3013 RMK AO2 P0002 T00610044


Station Type Date Time Source
KBLF Decoded METAR 2023/01/29 19:28 UTC NOAA

BLUEFIELD MERCER COUNTY AIRPORT , WV, United States (KBLF) 37-18N 081-12W 873M
Jan 29, 2023 - 02:28 PM EST / 2023.01.29 1928 UTC
Wind: from the W (260 degrees) at 16 MPH (14 KT):0
Visibility: 10 mile(s):0
Sky conditions: overcast
Weather: light rain
Precipitation last hour: 0.02 inches
Temperature: 43.0 F (6.1 C)
Dew Point: 39.9 F (4.4 C)
Relative Humidity: 88%
Pressure (altimeter): 30.13 in. Hg (1020 hPa)
ob: KBLF 291928Z AUTO 26014KT 10SM -RA SCT013 BKN020 OVC042 06/04 A3013 RMK AO2 P0002 T00610044
cycle: 19

Station Type Date Time Source
KBLF TAF 2023/01/29 18:42 UTC NOAA

TAF KBLF 291741Z 2918/3018 25010KT P6SM -RA SCT015 OVC025
FM292100 24005KT 5SM BR OVC008
FM300700 VRB03KT 6SM BR OVC007
FM301500 25007KT P6SM OVC008

Example: see airport list